createdAt,value
2023-10-14T00:02:22.765Z,4.30
2023-10-14T00:04:54.161Z,4.20
2023-10-14T00:07:26.106Z,4.13
2023-10-14T00:09:53.397Z,4.47
2023-10-14T00:12:21.756Z,4.33
2023-10-14T00:14:54.555Z,3.50
2023-10-14T00:17:22.284Z,3.90
2023-10-14T00:19:55.434Z,4.47
2023-10-14T00:22:23.918Z,4.53
2023-10-14T00:24:53.779Z,3.90
2023-10-14T00:27:20.719Z,4.10
2023-10-14T00:29:48.730Z,4.47
2023-10-14T00:32:15.566Z,5.10
2023-10-14T00:34:44.240Z,3.97
2023-10-14T00:37:11.604Z,4.53
2023-10-14T00:39:38.649Z,4.47
2023-10-14T00:42:09.285Z,4.13
2023-10-14T00:44:36.364Z,4.50
2023-10-14T00:47:08.802Z,4.23
2023-10-14T00:49:36.940Z,4.53
2023-10-14T00:52:12.645Z,4.70
2023-10-14T00:55:02.346Z,4.60
2023-10-14T00:57:39.592Z,4.10
2023-10-14T01:00:11.726Z,4.70
2023-10-14T01:02:39.546Z,4.33
2023-10-14T01:05:19.496Z,4.63
2023-10-14T01:07:46.547Z,4.10
2023-10-14T01:10:13.976Z,4.17
2023-10-14T01:12:46.723Z,5.10
2023-10-14T01:15:23.238Z,4.20
2023-10-14T01:17:55.333Z,4.67
2023-10-14T01:20:22.758Z,4.47
2023-10-14T01:22:58.944Z,4.37
2023-10-14T01:25:31.264Z,4.27
2023-10-14T01:28:00.488Z,4.37
2023-10-14T01:30:27.832Z,4.03
2023-10-14T01:33:16.956Z,4.27
2023-10-14T01:35:46.354Z,5.20
2023-10-14T01:38:13.266Z,4.60
2023-10-14T01:40:50.736Z,4.27
2023-10-14T01:43:17.697Z,4.70
2023-10-14T01:45:58.060Z,4.07
2023-10-14T01:48:32.203Z,4.00
2023-10-14T01:50:59.721Z,4.13
2023-10-14T01:53:36.255Z,4.00
2023-10-14T01:56:04.752Z,4.60
2023-10-14T01:58:35.857Z,4.47
2023-10-14T02:01:13.987Z,4.30
2023-10-14T02:03:45.637Z,4.40
2023-10-14T02:06:18.562Z,4.37
2023-10-14T02:08:52.823Z,4.17
2023-10-14T02:11:23.053Z,4.23
2023-10-14T02:13:53.444Z,4.00
2023-10-14T02:16:42.148Z,4.60
2023-10-14T02:19:20.466Z,3.33
2023-10-14T02:21:52.315Z,4.17
2023-10-14T02:24:19.614Z,4.90
2023-10-14T02:26:49.937Z,3.50
2023-10-14T02:29:17.263Z,4.13
2023-10-14T02:31:46.895Z,3.87
2023-10-14T02:34:16.366Z,4.67
2023-10-14T02:36:49.915Z,4.33
2023-10-14T02:39:18.926Z,3.63
2023-10-14T02:42:00.389Z,4.20
2023-10-14T02:44:44.947Z,4.43
2023-10-14T02:47:13.424Z,3.40
2023-10-14T02:49:43.870Z,3.60
2023-10-14T02:52:13.325Z,3.70
2023-10-14T02:54:46.529Z,3.50
2023-10-14T02:57:14.534Z,3.30
2023-10-14T02:59:44.503Z,4.13
2023-10-14T03:02:16.788Z,3.63
2023-10-14T03:04:54.632Z,3.90
2023-10-14T03:07:43.888Z,3.87
2023-10-14T03:10:13.711Z,3.37
2023-10-14T03:12:41.785Z,3.90
2023-10-14T03:15:20.208Z,3.23
2023-10-14T03:17:57.129Z,4.70
2023-10-14T03:20:29.235Z,4.07
2023-10-14T03:23:20.220Z,4.27
2023-10-14T03:25:49.509Z,3.90
2023-10-14T03:28:21.611Z,3.60
2023-10-14T03:30:57.310Z,3.57
2023-10-14T03:33:29.267Z,3.60
2023-10-14T03:36:06.994Z,4.53
2023-10-14T03:38:37.873Z,4.13
2023-10-14T03:41:19.061Z,3.60
2023-10-14T03:44:01.044Z,4.03
2023-10-14T03:46:42.325Z,3.97
2023-10-14T03:49:35.846Z,3.97
2023-10-14T03:52:02.686Z,4.20
2023-10-14T03:54:31.920Z,3.80
2023-10-14T03:56:58.781Z,3.90
2023-10-14T03:59:27.002Z,3.97
2023-10-14T04:01:59.578Z,3.80
2023-10-14T04:04:28.166Z,4.10
2023-10-14T04:07:00.003Z,3.77
2023-10-14T04:09:40.947Z,4.00
2023-10-14T04:12:10.989Z,4.13
2023-10-14T04:14:38.811Z,4.73
2023-10-14T04:17:23.106Z,4.23
2023-10-14T04:19:59.491Z,3.90
2023-10-14T04:22:26.468Z,4.20
2023-10-14T04:25:12.367Z,4.77
2023-10-14T04:27:47.436Z,4.00
2023-10-14T04:30:21.977Z,4.20
2023-10-14T04:32:58.379Z,3.83
2023-10-14T04:35:26.166Z,4.20
2023-10-14T04:37:56.683Z,4.00
2023-10-14T04:40:51.061Z,4.60
2023-10-14T04:43:18.034Z,5.13
2023-10-14T04:46:18.594Z,4.20
2023-10-14T04:49:01.257Z,4.23
2023-10-14T04:51:47.607Z,4.00
2023-10-14T04:54:21.455Z,4.87
2023-10-14T04:56:48.994Z,4.70
2023-10-14T04:59:21.953Z,4.90
2023-10-14T05:01:49.627Z,5.00
2023-10-14T05:04:21.484Z,3.93
2023-10-14T05:06:49.743Z,4.77
2023-10-14T05:09:32.092Z,3.93
2023-10-14T05:11:59.424Z,4.53
2023-10-14T05:14:35.993Z,4.80
2023-10-14T05:17:15.987Z,5.13
2023-10-14T05:19:43.922Z,4.43
2023-10-14T05:22:35.450Z,4.40
2023-10-14T05:25:10.282Z,5.40
2023-10-14T05:27:47.292Z,5.40
2023-10-14T05:30:23.070Z,3.80
2023-10-14T05:32:52.603Z,5.30
2023-10-14T05:35:23.570Z,5.07
2023-10-14T05:37:51.795Z,4.63
2023-10-14T05:40:22.821Z,4.87
2023-10-14T05:42:50.174Z,5.23
2023-10-14T05:45:19.004Z,4.60
2023-10-14T05:47:47.604Z,5.63
2023-10-14T05:50:17.882Z,5.60
2023-10-14T05:52:47.550Z,5.00
2023-10-14T05:55:20.843Z,4.70
2023-10-14T05:57:49.168Z,4.53
2023-10-14T06:00:23.092Z,5.27
2023-10-14T06:02:54.067Z,5.40
2023-10-14T06:05:33.002Z,5.40
2023-10-14T06:08:07.160Z,4.77
2023-10-14T06:10:38.061Z,5.03
2023-10-14T06:13:10.238Z,6.43
2023-10-14T06:15:41.721Z,5.70
2023-10-14T06:18:15.331Z,5.23
2023-10-14T06:20:43.637Z,5.20
2023-10-14T06:23:10.533Z,6.33
2023-10-14T06:25:39.529Z,5.97
2023-10-14T06:28:08.669Z,5.10
2023-10-14T06:30:35.923Z,5.40
2023-10-14T06:33:05.525Z,4.90
2023-10-14T06:35:38.697Z,5.30
2023-10-14T06:38:06.087Z,4.83
2023-10-14T06:40:39.010Z,4.80
2023-10-14T06:43:14.671Z,5.43
2023-10-14T06:45:41.660Z,5.43
2023-10-14T06:48:11.768Z,5.10
2023-10-14T06:50:39.432Z,5.43
2023-10-14T06:53:09.388Z,5.10
2023-10-14T06:55:40.928Z,5.07
2023-10-14T06:58:10.081Z,5.07
2023-10-14T07:00:40.099Z,4.50
2023-10-14T07:03:08.784Z,4.30
2023-10-14T07:05:44.802Z,4.47
2023-10-14T07:08:12.558Z,4.93
2023-10-14T07:10:40.458Z,4.63
2023-10-14T07:13:08.101Z,4.90
2023-10-14T07:15:40.121Z,4.37
2023-10-14T07:18:07.398Z,4.30
2023-10-14T07:20:35.251Z,4.10
2023-10-14T07:23:03.314Z,3.90
2023-10-14T07:25:35.253Z,4.70
2023-10-14T07:28:08.821Z,4.50
2023-10-14T07:30:36.277Z,4.37
2023-10-14T07:33:07.882Z,3.90
2023-10-14T07:35:35.296Z,3.90
2023-10-14T07:38:02.180Z,4.20
2023-10-14T07:40:31.561Z,3.50
2023-10-14T07:43:06.625Z,4.07
2023-10-14T07:45:35.333Z,3.57
2023-10-14T07:48:09.991Z,4.20
2023-10-14T07:50:41.206Z,3.63
2023-10-14T07:53:09.009Z,3.93
2023-10-14T07:55:50.191Z,4.07
2023-10-14T07:58:21.193Z,4.13
2023-10-14T08:00:51.971Z,4.00
2023-10-14T08:03:21.450Z,4.37
2023-10-14T08:05:51.209Z,4.20
2023-10-14T08:08:20.958Z,4.30
2023-10-14T08:10:50.250Z,4.10
2023-10-14T08:13:24.744Z,3.90
2023-10-14T08:15:59.098Z,5.53
2023-10-14T08:18:26.645Z,4.60
2023-10-14T08:20:57.090Z,4.67
2023-10-14T08:23:25.747Z,4.93
2023-10-14T08:25:56.325Z,4.97
2023-10-14T08:28:24.386Z,4.13
2023-10-14T08:30:52.360Z,4.80
2023-10-14T08:33:21.538Z,3.97
2023-10-14T08:35:49.561Z,3.70
2023-10-14T08:38:23.279Z,4.90
2023-10-14T08:40:54.917Z,4.40
2023-10-14T08:43:27.678Z,4.47
2023-10-14T08:45:55.604Z,4.33
2023-10-14T08:48:27.463Z,4.50
2023-10-14T08:50:57.829Z,4.60
2023-10-14T08:53:25.887Z,4.10
2023-10-14T08:55:53.858Z,5.37
2023-10-14T08:58:23.565Z,5.00
2023-10-14T09:00:53.670Z,5.20
2023-10-14T09:03:20.685Z,4.87
2023-10-14T09:05:48.087Z,5.50
2023-10-14T09:08:18.435Z,5.80
2023-10-14T09:10:46.102Z,6.03
2023-10-14T09:13:23.501Z,5.23
2023-10-14T09:15:51.783Z,5.50
2023-10-14T09:18:23.418Z,5.53
2023-10-14T09:20:57.953Z,5.20
2023-10-14T09:23:35.840Z,5.40
2023-10-14T09:26:04.081Z,5.70
2023-10-14T09:28:36.074Z,5.40
2023-10-14T09:31:06.383Z,5.37
2023-10-14T09:33:35.723Z,5.63
2023-10-14T09:36:21.780Z,5.93
2023-10-14T09:38:50.463Z,5.30
2023-10-14T09:41:18.481Z,4.93
2023-10-14T09:43:47.503Z,5.00
2023-10-14T09:46:18.780Z,5.17
2023-10-14T09:48:46.973Z,5.40
2023-10-14T09:51:17.005Z,5.03
2023-10-14T09:53:47.255Z,4.53
2023-10-14T09:56:17.214Z,4.90
2023-10-14T09:58:48.298Z,5.20
2023-10-14T10:01:17.212Z,4.73
2023-10-14T10:04:04.634Z,5.47
2023-10-14T10:06:54.351Z,4.97
2023-10-14T10:10:01.924Z,4.90
2023-10-14T10:12:32.234Z,4.97
2023-10-14T10:15:03.164Z,5.10
2023-10-14T10:17:30.145Z,4.47
2023-10-14T10:24:08.003Z,4.70
2023-10-14T10:27:25.969Z,4.50
2023-10-14T10:30:19.406Z,4.80
2023-10-14T10:32:57.876Z,5.03
2023-10-14T10:35:36.900Z,4.90
2023-10-14T10:38:24.171Z,4.60
2023-10-14T10:48:18.990Z,4.50
2023-10-14T10:50:52.772Z,4.53
2023-10-14T10:56:38.144Z,5.17
2023-10-14T10:59:06.511Z,3.90
2023-10-14T11:01:34.675Z,4.10
2023-10-14T11:04:11.427Z,4.40
2023-10-14T11:06:50.484Z,4.40
2023-10-14T11:09:20.657Z,5.00
2023-10-14T11:12:19.126Z,4.60
2023-10-14T11:17:58.379Z,4.83
2023-10-14T11:20:44.408Z,4.40
2023-10-14T11:23:13.416Z,3.90
2023-10-14T11:25:42.708Z,4.70
2023-10-14T11:28:12.352Z,4.20
2023-10-14T11:30:48.490Z,3.70
2023-10-14T11:33:19.486Z,3.37
2023-10-14T11:35:52.746Z,3.20
2023-10-14T11:38:20.037Z,3.67
2023-10-14T11:40:51.158Z,3.70
2023-10-14T11:43:22.759Z,3.33
2023-10-14T11:45:52.135Z,4.13
2023-10-14T11:48:28.566Z,3.70
2023-10-14T11:51:01.253Z,3.30
2023-10-14T11:53:30.671Z,3.40
2023-10-14T11:56:00.031Z,3.17
2023-10-14T11:58:38.472Z,3.30
2023-10-14T12:01:05.748Z,3.67
2023-10-14T12:03:33.231Z,3.60
2023-10-14T12:06:01.307Z,3.33
2023-10-14T12:08:33.723Z,2.63
2023-10-14T12:11:02.590Z,2.43
2023-10-14T12:13:46.123Z,2.80
2023-10-14T12:16:16.818Z,2.83
2023-10-14T12:18:47.441Z,3.00
2023-10-14T12:21:14.959Z,2.97
2023-10-14T12:23:42.334Z,2.83
2023-10-14T12:26:31.028Z,2.90
2023-10-14T12:29:08.919Z,2.70
2023-10-14T12:31:40.192Z,3.10
2023-10-14T12:34:10.614Z,3.60
2023-10-14T12:36:42.738Z,2.60
2023-10-14T12:39:27.822Z,3.80
2023-10-14T12:42:07.392Z,3.20
2023-10-14T12:44:34.805Z,2.80
2023-10-14T12:47:13.064Z,3.27
2023-10-14T12:49:44.485Z,3.10
2023-10-14T12:53:37.184Z,3.40
2023-10-14T12:59:26.262Z,3.83
2023-10-14T13:02:07.574Z,2.70
2023-10-14T13:05:09.104Z,2.70
2023-10-14T13:07:42.902Z,3.87
2023-10-14T13:10:15.920Z,3.37
2023-10-14T13:12:55.553Z,4.40
2023-10-14T13:15:31.320Z,4.20
2023-10-14T13:18:00.812Z,5.20
2023-10-14T13:20:37.038Z,4.70
2023-10-14T13:23:16.002Z,4.20
2023-10-14T13:25:46.904Z,4.00
2023-10-14T13:28:18.363Z,3.33
2023-10-14T13:30:51.459Z,3.27
2023-10-14T13:33:29.140Z,3.70
2023-10-14T13:35:57.313Z,3.40
2023-10-14T13:38:24.889Z,3.07
2023-10-14T13:40:52.676Z,3.20
2023-10-14T13:43:22.983Z,3.30
2023-10-14T13:46:01.617Z,3.83
2023-10-14T13:48:31.205Z,3.37
2023-10-14T13:50:58.685Z,3.37
2023-10-14T13:53:34.077Z,3.27
2023-10-14T13:56:05.707Z,3.50
2023-10-14T13:58:39.386Z,2.93
2023-10-14T14:01:16.943Z,2.83
2023-10-14T14:04:21.848Z,2.60
2023-10-14T14:07:24.278Z,1.50
2023-10-14T14:10:11.515Z,1.77
2023-10-14T14:12:59.350Z,2.13
2023-10-14T14:15:58.767Z,1.97
2023-10-14T14:19:02.288Z,2.07
2023-10-14T14:21:53.155Z,2.00
2023-10-14T14:24:27.643Z,2.03
2023-10-14T14:27:04.111Z,1.47
2023-10-14T14:29:50.713Z,1.10
2023-10-14T14:33:00.920Z,1.20
2023-10-14T14:38:37.966Z,1.20
2023-10-14T14:41:50.177Z,1.07
2023-10-14T14:44:25.928Z,1.10
2023-10-14T14:47:09.754Z,1.30
2023-10-14T14:50:41.773Z,1.10
2023-10-14T14:53:41.473Z,1.27
2023-10-14T15:09:10.077Z,1.60
2023-10-14T17:15:03.717Z,1.77
2023-10-14T18:36:01.083Z,2.10
2023-10-14T18:50:09.160Z,2.30
2023-10-14T18:53:46.178Z,2.50
2023-10-14T19:03:36.102Z,2.93
2023-10-14T19:16:06.989Z,2.60
2023-10-14T19:42:45.434Z,3.13
2023-10-14T19:45:43.537Z,2.90
2023-10-14T19:46:03.531Z,2.80
2023-10-14T19:52:09.216Z,2.70
2023-10-14T19:55:49.775Z,2.80
2023-10-14T20:02:06.608Z,2.83
2023-10-14T20:05:13.976Z,2.88
2023-10-14T20:08:25.951Z,2.85
2023-10-14T20:11:04.215Z,3.87
2023-10-14T20:17:09.723Z,3.08
2023-10-14T20:19:40.210Z,3.03
2023-10-14T20:41:10.006Z,2.90
2023-10-14T20:46:46.825Z,2.80
2023-10-14T20:49:24.767Z,2.37
2023-10-14T20:52:47.193Z,3.30
2023-10-14T20:55:18.928Z,2.90
2023-10-14T21:01:00.013Z,3.00
2023-10-14T21:04:04.715Z,2.78
2023-10-14T21:09:24.413Z,4.03
2023-10-14T21:12:10.041Z,3.33
2023-10-14T21:14:47.457Z,2.50
2023-10-14T21:17:35.252Z,2.67
2023-10-14T21:20:13.669Z,2.50
2023-10-14T21:23:22.094Z,2.87
2023-10-14T21:26:27.014Z,2.80
2023-10-14T21:28:54.407Z,3.53
2023-10-14T21:31:21.980Z,2.97
2023-10-14T21:34:16.149Z,2.87
2023-10-14T21:36:43.380Z,2.53
2023-10-14T21:39:10.598Z,3.00
2023-10-14T21:41:40.665Z,2.90
2023-10-14T21:44:12.747Z,3.40
2023-10-14T21:46:46.088Z,3.20
2023-10-14T21:49:13.627Z,2.80
2023-10-14T21:51:44.840Z,3.20
2023-10-14T21:54:20.145Z,2.57
2023-10-14T21:56:56.144Z,2.53
2023-10-14T21:59:51.350Z,2.70
2023-10-14T22:02:24.016Z,2.75
2023-10-14T22:05:05.127Z,3.28
2023-10-14T22:07:40.755Z,3.00
2023-10-14T22:10:08.111Z,2.80
2023-10-14T22:12:37.922Z,2.75
2023-10-14T22:15:16.404Z,2.53
2023-10-14T22:17:47.841Z,2.40
2023-10-14T22:20:17.746Z,3.22
2023-10-14T22:22:46.989Z,2.80
2023-10-14T22:25:14.176Z,2.50
2023-10-14T22:27:43.845Z,2.83
2023-10-14T22:30:11.565Z,2.50
2023-10-14T22:32:40.411Z,3.47
2023-10-14T22:35:08.216Z,2.50
2023-10-14T22:37:37.681Z,2.45
2023-10-14T22:40:06.164Z,2.67
2023-10-14T22:42:33.358Z,2.40
2023-10-14T22:45:14.521Z,3.13
2023-10-14T22:48:01.015Z,2.65
2023-10-14T22:50:30.972Z,3.20
2023-10-14T22:52:58.177Z,3.42
2023-10-14T22:55:30.525Z,3.72
2023-10-14T22:58:00.011Z,2.90
2023-10-14T23:03:29.778Z,2.60
2023-10-14T23:05:56.872Z,2.70
2023-10-14T23:08:23.866Z,3.05
2023-10-14T23:10:54.456Z,2.75
2023-10-14T23:13:25.102Z,2.55
2023-10-14T23:15:55.796Z,2.90
2023-10-14T23:18:25.592Z,2.77
2023-10-14T23:21:03.350Z,2.80
2023-10-14T23:23:30.381Z,2.50
2023-10-14T23:26:00.545Z,3.03
2023-10-14T23:28:34.441Z,3.03
2023-10-14T23:31:02.124Z,2.30
2023-10-14T23:33:30.910Z,2.30
2023-10-14T23:35:57.920Z,2.80
2023-10-14T23:38:26.644Z,3.40
2023-10-14T23:40:54.857Z,2.35
2023-10-14T23:43:21.844Z,2.73
2023-10-14T23:45:48.778Z,2.50
2023-10-14T23:48:16.087Z,2.90
2023-10-14T23:50:43.534Z,3.00
2023-10-14T23:53:10.633Z,2.70
2023-10-14T23:55:47.966Z,2.57
2023-10-14T23:58:16.156Z,2.50
